Terminal Aerodrome Forecast
Issued by NWS

Home | Current Version | Previous Version | Text Only | Print | Product List | Glossary On
Versions: 1 2 3 4 5 6 7 8 9 10 11 12 13 14 15 16 17 18 19 20 21 22 23 24 25 26 27 28 29 30 31 32 33 34 35 36 37 38 39 40 41 42 43 44 45 46 47 48 49 50
000
FTUS44 KHGX 010712 AAB
TAFCXO
TAF AMD
KCXO 010712Z 0107/0206 VRB05KT P6SM BKN015 BKN019 OVC045
     FM011500 06004KT P6SM BKN025
     FM012100 11005KT P6SM VCTS BKN040CB PROB30 0121/0124 5SM -TSRA
      BKN030CB
     FM020200 02004KT P6SM BKN040=

USA.gov is the U.S. government's official web portal to all federal, state and local government web resources and services.